SYNOP

Station Code SYNOP
43555
AAXX 18124 43555 12465 72008 10304 20248 30111 40113 60022 86252 333 10332 58016 83817 85623=
43533
AAXX 18124 43533 12470 72505 10303 20256 30112 40114 60002 82242 333 10332 58018 82818 86076=
43577
AAXX 18124 43577 12467 71805 10295 20233 30117 40119 60002 81232 333 10317 58015 81818 87076=
43588
AAXX 18124 43588 12470 41606 10300 20231 30115 40116 60002 82202 333 10312 58010 82818 84077=
43599
AAXX 18124 43599 12465 11806 10296 20235 30117 40119 60002 81100 333 10316 58009 81819=
Last Updated : 2021-04-18 16:58:28